createdAt,value
2018-01-30T00:00:03.980Z,75.40
2018-01-30T00:02:30.127Z,75.00
2018-01-30T00:04:57.052Z,75.90
2018-01-30T00:07:23.244Z,76.00
2018-01-30T00:09:49.384Z,76.20
2018-01-30T00:12:16.268Z,75.30
2018-01-30T00:14:42.433Z,75.30
2018-01-30T00:17:08.632Z,74.50
2018-01-30T00:19:34.783Z,74.30
2018-01-30T00:22:01.188Z,75.50
2018-01-30T00:24:27.605Z,74.80
2018-01-30T00:26:54.506Z,73.90
2018-01-30T00:29:20.687Z,73.90
2018-01-30T00:31:47.588Z,75.20
2018-01-30T00:34:13.732Z,75.10
2018-01-30T00:36:39.953Z,75.60
2018-01-30T00:39:06.828Z,74.80
2018-01-30T00:41:32.999Z,74.80
2018-01-30T00:43:59.919Z,74.60
2018-01-30T00:46:26.090Z,74.50
2018-01-30T00:48:52.282Z,74.30
2018-01-30T00:51:18.468Z,74.90
2018-01-30T00:53:44.611Z,75.10
2018-01-30T00:56:10.787Z,74.90
2018-01-30T00:58:37.720Z,76.90
2018-01-30T01:01:03.887Z,76.20
2018-01-30T01:03:30.795Z,75.70
2018-01-30T01:05:57.709Z,76.00
2018-01-30T01:08:23.879Z,75.90
2018-01-30T01:10:50.036Z,75.20
2018-01-30T01:13:16.208Z,74.20
2018-01-30T01:15:42.387Z,75.70
2018-01-30T01:18:08.563Z,76.40
2018-01-30T01:20:35.485Z,76.10
2018-01-30T01:23:02.574Z,76.50
2018-01-30T01:25:28.980Z,76.50
2018-01-30T01:27:55.920Z,75.20
2018-01-30T01:30:22.076Z,75.10
2018-01-30T01:32:48.220Z,74.60
2018-01-30T01:35:15.138Z,74.70
2018-01-30T01:37:42.050Z,75.30
2018-01-30T01:40:08.199Z,74.90
2018-01-30T01:42:34.392Z,75.70
2018-01-30T01:45:01.284Z,75.30
2018-01-30T01:47:27.443Z,75.30
2018-01-30T01:49:53.619Z,74.70
2018-01-30T01:52:19.793Z,75.00
2018-01-30T01:54:45.973Z,74.50
2018-01-30T01:57:12.879Z,75.70
2018-01-30T01:59:39.079Z,75.60
2018-01-30T02:02:05.278Z,74.70
2018-01-30T02:04:32.195Z,73.90
2018-01-30T02:06:58.352Z,73.80
2018-01-30T02:09:25.249Z,74.30
2018-01-30T02:11:51.424Z,73.60
2018-01-30T02:14:17.583Z,74.30
2018-01-30T02:16:44.520Z,73.00
2018-01-30T02:19:11.464Z,72.80
2018-01-30T02:21:37.632Z,72.70
2018-01-30T02:24:03.952Z,72.80
2018-01-30T02:26:30.371Z,73.50
2018-01-30T02:28:56.520Z,74.90
2018-01-30T02:31:23.420Z,74.90
2018-01-30T02:33:49.594Z,74.00
2018-01-30T02:36:16.508Z,74.20
2018-01-30T02:38:43.447Z,73.90
2018-01-30T02:41:09.641Z,73.80
2018-01-30T02:43:36.541Z,73.40
2018-01-30T02:46:02.712Z,73.30
2018-01-30T02:48:29.627Z,73.90
2018-01-30T02:50:55.796Z,73.90
2018-01-30T02:53:21.939Z,74.60
2018-01-30T02:55:48.120Z,74.50
2018-01-30T02:58:14.278Z,74.50
2018-01-30T03:00:40.455Z,73.60
2018-01-30T03:03:06.689Z,73.30
2018-01-30T03:05:32.880Z,73.90
2018-01-30T03:07:59.043Z,74.70
2018-01-30T03:10:25.952Z,73.90
2018-01-30T03:12:52.140Z,73.90
2018-01-30T03:15:18.304Z,74.70
2018-01-30T03:17:44.508Z,74.80
2018-01-30T03:20:10.668Z,73.70
2018-01-30T03:22:37.795Z,73.50
2018-01-30T03:25:04.130Z,73.50
2018-01-30T03:27:30.560Z,74.50
2018-01-30T03:29:57.463Z,75.20
2018-01-30T03:32:23.699Z,75.10
2018-01-30T03:34:49.907Z,75.60
2018-01-30T03:37:16.080Z,75.30
2018-01-30T03:39:42.267Z,75.30
2018-01-30T03:42:08.449Z,75.60
2018-01-30T03:44:34.607Z,75.20
2018-01-30T03:47:00.787Z,75.60
2018-01-30T03:49:26.954Z,75.40
2018-01-30T03:51:53.149Z,75.90
2018-01-30T03:54:19.352Z,74.30
2018-01-30T03:56:45.532Z,74.90
2018-01-30T03:59:11.692Z,74.50
2018-01-30T04:01:38.664Z,74.30
2018-01-30T04:04:04.840Z,75.50
2018-01-30T04:06:31.017Z,74.50
2018-01-30T04:08:57.922Z,75.10
2018-01-30T04:11:24.096Z,75.10
2018-01-30T04:13:50.259Z,75.50
2018-01-30T04:16:17.243Z,75.60
2018-01-30T04:18:43.414Z,73.70
2018-01-30T04:21:10.340Z,74.50
2018-01-30T04:23:36.524Z,74.50
2018-01-30T04:26:04.384Z,73.80
2018-01-30T04:28:32.318Z,74.30
2018-01-30T04:30:58.528Z,75.90
2018-01-30T04:33:24.676Z,75.40
2018-01-30T04:35:50.815Z,75.40
2018-01-30T04:38:16.975Z,75.70
2018-01-30T04:40:43.119Z,75.50
2018-01-30T04:43:10.006Z,76.10
2018-01-30T04:45:36.178Z,76.10
2018-01-30T04:48:02.348Z,76.60
2018-01-30T04:50:29.259Z,75.80
2018-01-30T04:52:55.441Z,75.80
2018-01-30T04:55:22.311Z,75.70
2018-01-30T04:57:48.447Z,75.70
2018-01-30T05:00:14.623Z,75.30
2018-01-30T05:02:40.762Z,75.50
2018-01-30T05:05:07.647Z,74.90
2018-01-30T05:07:33.825Z,74.90
2018-01-30T05:10:00.036Z,76.80
2018-01-30T05:12:26.172Z,76.30
2018-01-30T05:14:52.340Z,76.20
2018-01-30T05:17:19.229Z,76.30
2018-01-30T05:19:45.367Z,76.20
2018-01-30T05:22:11.521Z,76.10
2018-01-30T05:24:37.699Z,76.20
2018-01-30T05:27:04.723Z,75.20
2018-01-30T05:29:31.139Z,75.10
2018-01-30T05:31:57.293Z,75.10
2018-01-30T05:34:23.459Z,75.50
2018-01-30T05:36:49.633Z,76.20
2018-01-30T05:39:15.780Z,75.90
2018-01-30T05:41:41.929Z,76.00
2018-01-30T05:44:08.084Z,76.50
2018-01-30T05:46:34.972Z,75.50
2018-01-30T05:49:01.128Z,75.40
2018-01-30T05:51:27.290Z,76.50
2018-01-30T05:53:54.197Z,76.20
2018-01-30T05:56:20.331Z,75.50
2018-01-30T05:58:46.520Z,76.30
2018-01-30T06:01:13.405Z,76.00
2018-01-30T06:03:39.580Z,75.90
2018-01-30T06:06:05.785Z,75.20
2018-01-30T06:08:32.687Z,76.10
2018-01-30T06:10:58.822Z,76.10
2018-01-30T06:13:25.725Z,77.20
2018-01-30T06:15:51.881Z,77.20
2018-01-30T06:18:19.520Z,77.00
2018-01-30T06:20:45.694Z,77.00
2018-01-30T06:23:12.586Z,76.80
2018-01-30T06:25:38.740Z,76.70
2018-01-30T06:28:04.967Z,76.10
2018-01-30T06:30:31.308Z,76.50
2018-01-30T06:32:57.468Z,76.60
2018-01-30T06:35:23.644Z,76.40
2018-01-30T06:37:49.787Z,76.30
2018-01-30T06:40:15.939Z,76.70
2018-01-30T06:42:42.120Z,76.90
2018-01-30T06:45:09.005Z,76.20
2018-01-30T06:47:35.163Z,76.20
2018-01-30T06:50:01.321Z,76.90
2018-01-30T06:52:27.467Z,76.80
2018-01-30T06:54:54.408Z,76.50
2018-01-30T06:57:20.600Z,76.40
2018-01-30T06:59:46.764Z,75.00
2018-01-30T07:02:12.912Z,75.30
2018-01-30T07:04:39.056Z,75.40
2018-01-30T07:07:05.207Z,76.20
2018-01-30T07:09:31.364Z,77.20
2018-01-30T07:11:57.532Z,76.20
2018-01-30T07:14:23.692Z,75.70
2018-01-30T07:16:49.849Z,74.60
2018-01-30T07:19:16.030Z,75.40
2018-01-30T07:21:43.108Z,76.00
2018-01-30T07:24:10.028Z,76.50
2018-01-30T07:26:36.184Z,76.50
2018-01-30T07:29:02.460Z,76.20
2018-01-30T07:31:29.419Z,76.50
2018-01-30T07:33:55.628Z,76.30
2018-01-30T07:36:21.767Z,76.30
2018-01-30T07:38:47.915Z,76.20
2018-01-30T07:41:14.068Z,76.20
2018-01-30T07:43:40.239Z,76.00
2018-01-30T07:46:06.414Z,76.50
2018-01-30T07:48:32.567Z,76.90
2018-01-30T07:50:58.716Z,76.60
2018-01-30T07:53:24.896Z,76.40
2018-01-30T07:55:51.083Z,76.30
2018-01-30T07:58:18.211Z,77.20
2018-01-30T08:00:44.363Z,76.20
2018-01-30T08:03:10.552Z,76.90
2018-01-30T08:05:36.716Z,75.90
2018-01-30T08:08:04.423Z,76.40
2018-01-30T08:10:31.024Z,75.80
2018-01-30T08:12:57.183Z,76.80
2018-01-30T08:15:23.332Z,76.30
2018-01-30T08:17:50.236Z,76.50
2018-01-30T08:20:16.403Z,76.20
2018-01-30T08:22:43.291Z,77.00
2018-01-30T08:25:09.456Z,76.30
2018-01-30T08:27:35.612Z,76.60
2018-01-30T08:30:01.846Z,77.50
2018-01-30T08:32:38.419Z,77.50
2018-01-30T08:35:20.635Z,77.80
2018-01-30T08:38:02.698Z,77.80
2018-01-30T08:40:45.344Z,78.00
2018-01-30T08:43:27.207Z,77.70
2018-01-30T08:46:10.087Z,77.70
2018-01-30T08:48:51.684Z,77.00
2018-01-30T08:51:33.637Z,77.00
2018-01-30T08:54:16.155Z,77.50
2018-01-30T08:56:57.815Z,77.70
2018-01-30T08:59:40.069Z,76.80
2018-01-30T09:02:06.264Z,76.80
2018-01-30T09:04:32.408Z,77.80
2018-01-30T09:06:58.600Z,77.30
2018-01-30T09:09:24.747Z,77.30
2018-01-30T09:11:51.708Z,77.50
2018-01-30T09:14:18.672Z,77.70
2018-01-30T09:16:44.895Z,77.70
2018-01-30T09:19:11.843Z,77.20
2018-01-30T09:21:38.068Z,77.20
2018-01-30T09:24:05.068Z,76.50
2018-01-30T09:26:31.340Z,76.50
2018-01-30T09:28:57.572Z,77.00
2018-01-30T09:31:23.852Z,76.90
2018-01-30T09:33:50.129Z,77.50
2018-01-30T09:36:16.398Z,76.40
2018-01-30T09:38:43.373Z,76.10
2018-01-30T09:41:09.584Z,76.00
2018-01-30T09:43:36.572Z,76.20
2018-01-30T09:46:02.801Z,76.20
2018-01-30T09:48:29.028Z,76.20
2018-01-30T09:50:55.269Z,77.10
2018-01-30T09:53:21.510Z,76.80
2018-01-30T09:55:47.720Z,76.60
2018-01-30T09:58:14.046Z,75.70
2018-01-30T10:00:40.999Z,75.90
2018-01-30T10:03:07.961Z,76.00
2018-01-30T10:05:34.217Z,76.00
2018-01-30T10:08:00.440Z,76.00
2018-01-30T10:10:26.722Z,76.00
2018-01-30T10:12:53.731Z,73.40
2018-01-30T10:15:20.031Z,73.40
2018-01-30T10:17:47.015Z,73.40
2018-01-30T10:20:13.251Z,73.30
2018-01-30T10:22:39.487Z,73.70
2018-01-30T10:25:05.708Z,74.10
2018-01-30T10:27:31.950Z,73.70
2018-01-30T10:29:58.168Z,73.10
2018-01-30T10:32:24.455Z,73.50
2018-01-30T10:34:50.884Z,73.30
2018-01-30T10:37:17.084Z,72.60
2018-01-30T10:39:43.308Z,72.60
2018-01-30T10:42:10.307Z,73.10
2018-01-30T10:44:36.535Z,73.00
2018-01-30T10:47:02.763Z,72.90
2018-01-30T10:49:29.017Z,72.80
2018-01-30T10:51:55.233Z,73.80
2018-01-30T10:54:21.464Z,73.10
2018-01-30T10:56:47.725Z,73.10
2018-01-30T10:59:13.939Z,73.20
2018-01-30T11:01:40.188Z,73.60
2018-01-30T11:04:06.444Z,73.90
2018-01-30T11:06:32.673Z,72.80
2018-01-30T11:08:58.903Z,73.50
2018-01-30T11:11:25.132Z,73.60
2018-01-30T11:13:51.397Z,71.70
2018-01-30T11:16:18.360Z,72.50
2018-01-30T11:18:45.332Z,73.20
2018-01-30T11:21:11.537Z,73.10
2018-01-30T11:23:38.483Z,72.30
2018-01-30T11:26:05.468Z,71.30
2018-01-30T11:28:32.423Z,71.60
2018-01-30T11:30:58.691Z,71.60
2018-01-30T11:33:25.015Z,72.50
2018-01-30T11:35:51.418Z,72.30
2018-01-30T11:38:17.664Z,71.90
2018-01-30T11:40:43.921Z,70.80
2018-01-30T11:43:10.936Z,70.80
2018-01-30T11:45:37.910Z,71.50
2018-01-30T11:48:04.143Z,71.40
2018-01-30T11:50:30.357Z,71.30
2018-01-30T11:52:56.652Z,70.90
2018-01-30T11:55:22.883Z,71.10
2018-01-30T11:57:49.112Z,70.90
2018-01-30T12:00:15.352Z,71.10
2018-01-30T12:02:41.596Z,69.60
2018-01-30T12:05:09.283Z,70.50
2018-01-30T12:07:36.237Z,70.70
2018-01-30T12:10:02.479Z,70.60
2018-01-30T12:12:29.439Z,71.30
2018-01-30T12:14:56.407Z,69.60
2018-01-30T12:17:22.648Z,69.60
2018-01-30T12:19:48.875Z,70.50
2018-01-30T12:22:15.107Z,70.90
2018-01-30T12:24:41.348Z,71.40
2018-01-30T12:27:07.678Z,70.90
2018-01-30T12:29:33.875Z,69.60
2018-01-30T12:32:00.119Z,69.30
2018-01-30T12:34:27.135Z,69.80
2018-01-30T12:36:53.631Z,69.90
2018-01-30T12:39:20.600Z,69.50
2018-01-30T12:41:46.869Z,69.40
2018-01-30T12:44:13.091Z,69.80
2018-01-30T12:46:40.089Z,68.50
2018-01-30T12:49:07.052Z,69.00
2018-01-30T12:51:34.044Z,69.60
2018-01-30T12:54:01.048Z,69.20
2018-01-30T12:56:28.000Z,68.70
2018-01-30T12:58:54.230Z,68.50
2018-01-30T13:01:21.221Z,67.90
2018-01-30T13:03:47.464Z,67.50
2018-01-30T13:06:13.667Z,67.40
2018-01-30T13:08:40.662Z,68.40
2018-01-30T13:11:06.885Z,68.40
2018-01-30T13:13:33.092Z,67.00
2018-01-30T13:15:59.320Z,66.80
2018-01-30T13:18:26.273Z,67.50
2018-01-30T13:20:52.532Z,67.30
2018-01-30T13:23:18.783Z,65.40
2018-01-30T13:25:45.012Z,64.90
2018-01-30T13:28:11.227Z,65.30
2018-01-30T13:30:37.593Z,65.40
2018-01-30T13:33:03.819Z,65.30
2018-01-30T13:35:30.095Z,65.30
2018-01-30T13:37:57.279Z,64.70
2018-01-30T13:40:24.221Z,66.90
2018-01-30T13:42:51.223Z,66.60
2018-01-30T13:45:17.468Z,66.50
2018-01-30T13:47:43.677Z,65.40
2018-01-30T13:50:09.903Z,66.70
2018-01-30T13:52:36.292Z,64.90
2018-01-30T13:55:02.516Z,64.40
2018-01-30T13:57:28.722Z,64.00
2018-01-30T13:59:55.700Z,63.30
2018-01-30T14:02:21.935Z,63.30
2018-01-30T14:04:48.152Z,64.70
2018-01-30T14:07:14.386Z,65.00
2018-01-30T14:09:40.612Z,66.00
2018-01-30T14:12:06.864Z,65.90
2018-01-30T14:14:33.104Z,66.00
2018-01-30T14:16:59.341Z,64.30
2018-01-30T14:19:25.576Z,66.00
2018-01-30T14:21:51.824Z,67.10
2018-01-30T14:24:18.036Z,66.60
2018-01-30T14:26:44.276Z,65.80
2018-01-30T14:29:10.496Z,65.10
2018-01-30T14:31:36.720Z,65.00
2018-01-30T14:34:02.943Z,64.90
2018-01-30T14:36:29.228Z,65.50
2018-01-30T14:38:55.704Z,65.00
2018-01-30T14:41:21.937Z,66.20
2018-01-30T14:43:48.156Z,65.30
2018-01-30T14:46:15.120Z,66.60
2018-01-30T14:48:41.334Z,67.20
2018-01-30T14:51:08.309Z,66.60
2018-01-30T14:53:34.513Z,66.60
2018-01-30T14:56:00.732Z,67.70
2018-01-30T14:58:26.960Z,67.90
2018-01-30T15:00:53.246Z,64.70
2018-01-30T15:03:20.167Z,65.60
2018-01-30T15:05:47.144Z,65.50
2018-01-30T15:08:14.077Z,66.20
2018-01-30T15:10:41.038Z,67.10
2018-01-30T15:13:07.272Z,67.00
2018-01-30T15:15:33.540Z,66.60
2018-01-30T15:17:59.759Z,65.80
2018-01-30T15:20:25.984Z,66.90
2018-01-30T15:22:52.944Z,66.90
2018-01-30T15:25:19.152Z,66.80
2018-01-30T15:27:46.118Z,67.20
2018-01-30T15:30:13.065Z,68.40
2018-01-30T15:32:40.005Z,68.00
2018-01-30T15:35:06.996Z,66.90
2018-01-30T15:37:35.013Z,66.70
2018-01-30T15:40:02.760Z,67.30
2018-01-30T15:42:29.029Z,67.10
2018-01-30T15:44:55.240Z,67.00
2018-01-30T15:47:21.471Z,69.60
2018-01-30T15:49:47.721Z,68.30
2018-01-30T15:52:13.936Z,69.60
2018-01-30T15:54:40.157Z,68.60
2018-01-30T15:57:06.389Z,68.40
2018-01-30T15:59:32.640Z,68.90
2018-01-30T16:01:58.921Z,68.00
2018-01-30T16:04:25.945Z,68.20
2018-01-30T16:06:52.136Z,68.20
2018-01-30T16:09:18.342Z,69.10
2018-01-30T16:11:44.753Z,68.60
2018-01-30T16:14:11.062Z,68.30
2018-01-30T16:16:37.281Z,67.60
2018-01-30T16:19:03.567Z,68.40
2018-01-30T16:21:29.802Z,68.00
2018-01-30T16:23:56.784Z,69.60
2018-01-30T16:26:23.750Z,68.70
2018-01-30T16:28:49.975Z,68.70
2018-01-30T16:31:16.200Z,66.90
2018-01-30T16:33:43.179Z,67.20
2018-01-30T16:36:09.401Z,67.10
2018-01-30T16:38:36.339Z,66.50
2018-01-30T16:41:02.796Z,66.50
2018-01-30T16:43:29.087Z,66.20
2018-01-30T16:45:56.065Z,67.00
2018-01-30T16:48:23.052Z,67.70
2018-01-30T16:50:49.309Z,67.60
2018-01-30T16:53:15.539Z,66.00
2018-01-30T16:55:41.786Z,66.20
2018-01-30T16:58:08.775Z,67.30
2018-01-30T17:00:35.039Z,67.20
2018-01-30T17:03:01.305Z,67.10
2018-01-30T17:05:27.532Z,66.60
2018-01-30T17:07:53.792Z,66.00
2018-01-30T17:10:20.798Z,65.60
2018-01-30T17:12:47.046Z,65.60
2018-01-30T17:15:13.292Z,65.60
2018-01-30T17:17:39.524Z,65.80
2018-01-30T17:20:07.241Z,66.30
2018-01-30T17:22:33.642Z,66.30
2018-01-30T17:24:59.870Z,68.10
2018-01-30T17:27:26.187Z,67.20
2018-01-30T17:29:52.563Z,68.20
2018-01-30T17:32:18.961Z,69.00
2018-01-30T17:34:45.159Z,68.50
2018-01-30T17:37:12.112Z,69.40
2018-01-30T17:39:38.439Z,69.40
2018-01-30T17:42:04.896Z,67.00
2018-01-30T17:44:31.104Z,67.40
2018-01-30T17:46:58.075Z,68.10
2018-01-30T17:49:24.303Z,68.10
2018-01-30T17:51:51.272Z,67.20
2018-01-30T17:54:17.491Z,67.20
2018-01-30T17:56:43.748Z,67.20
2018-01-30T17:59:09.994Z,67.20
2018-01-30T18:01:36.239Z,68.00
2018-01-30T18:04:02.464Z,68.30
2018-01-30T18:06:28.696Z,68.10
2018-01-30T18:08:54.956Z,67.60
2018-01-30T18:11:21.169Z,69.10
2018-01-30T18:13:47.416Z,69.30
2018-01-30T18:16:13.654Z,68.60
2018-01-30T18:18:40.625Z,67.80
2018-01-30T18:21:07.605Z,68.50
2018-01-30T18:23:33.851Z,68.40
2018-01-30T18:26:00.120Z,67.40
2018-01-30T18:28:26.341Z,68.80
2018-01-30T18:30:52.571Z,67.50
2018-01-30T18:33:18.789Z,67.90
2018-01-30T18:35:44.996Z,68.40
2018-01-30T18:38:11.223Z,68.20
2018-01-30T18:40:37.554Z,67.40
2018-01-30T18:43:04.072Z,67.60
2018-01-30T18:45:30.349Z,67.30
2018-01-30T18:47:57.304Z,70.20
2018-01-30T18:50:24.288Z,68.60
2018-01-30T18:52:50.548Z,68.50
2018-01-30T18:55:17.527Z,68.70
2018-01-30T18:57:43.759Z,68.70
2018-01-30T19:00:10.031Z,69.50
2018-01-30T19:02:36.260Z,69.90
2018-01-30T19:05:02.502Z,70.00
2018-01-30T19:07:28.752Z,69.60
2018-01-30T19:09:54.979Z,68.60
2018-01-30T19:12:21.176Z,68.20
2018-01-30T19:14:48.171Z,68.80
2018-01-30T19:17:14.378Z,68.80
2018-01-30T19:19:40.607Z,69.20
2018-01-30T19:22:07.644Z,69.40
2018-01-30T19:24:33.937Z,69.40
2018-01-30T19:27:00.188Z,69.00
2018-01-30T19:29:26.448Z,69.30
2018-01-30T19:31:52.672Z,69.10
2018-01-30T19:34:18.958Z,68.70
2018-01-30T19:36:45.224Z,69.00
2018-01-30T19:39:11.452Z,69.40
2018-01-30T19:41:37.767Z,70.10
2018-01-30T19:44:04.255Z,70.70
2018-01-30T19:46:30.496Z,69.50
2018-01-30T19:48:56.723Z,70.60
2018-01-30T19:51:23.146Z,69.60
2018-01-30T19:53:49.352Z,69.70
2018-01-30T19:56:15.563Z,69.40
2018-01-30T19:58:41.843Z,69.70
2018-01-30T20:01:08.058Z,70.00
2018-01-30T20:03:34.310Z,70.90
2018-01-30T20:06:00.598Z,71.80
2018-01-30T20:08:26.881Z,71.50
2018-01-30T20:10:53.163Z,70.20
2018-01-30T20:13:20.186Z,70.80
2018-01-30T20:15:46.430Z,70.60
2018-01-30T20:18:12.755Z,70.90
2018-01-30T20:20:39.001Z,69.90
2018-01-30T20:23:05.999Z,70.60
2018-01-30T20:25:32.243Z,70.60
2018-01-30T20:27:58.492Z,69.60
2018-01-30T20:30:24.735Z,70.30
2018-01-30T20:32:50.966Z,70.30
2018-01-30T20:35:17.329Z,70.20
2018-01-30T20:37:43.636Z,69.40
2018-01-30T20:40:09.914Z,69.80
2018-01-30T20:42:37.073Z,69.80
2018-01-30T20:45:03.576Z,69.70
2018-01-30T20:47:29.841Z,69.80
2018-01-30T20:49:56.840Z,69.80
2018-01-30T20:52:23.078Z,69.80
2018-01-30T20:54:49.307Z,69.60
2018-01-30T20:57:15.610Z,70.10
2018-01-30T20:59:42.588Z,70.30
2018-01-30T21:02:08.831Z,70.30
2018-01-30T21:04:35.063Z,70.40
2018-01-30T21:07:01.304Z,70.60
2018-01-30T21:09:27.523Z,71.60
2018-01-30T21:11:53.763Z,72.50
2018-01-30T21:14:19.993Z,71.10
2018-01-30T21:16:46.952Z,71.40
2018-01-30T21:19:13.244Z,71.40
2018-01-30T21:21:39.472Z,72.00
2018-01-30T21:24:06.476Z,72.50
2018-01-30T21:26:32.711Z,72.50
2018-01-30T21:28:58.940Z,70.90
2018-01-30T21:31:25.201Z,71.40
2018-01-30T21:33:51.535Z,72.20
2018-01-30T21:36:17.760Z,72.60
2018-01-30T21:38:43.987Z,72.20
2018-01-30T21:41:10.219Z,72.30
2018-01-30T21:43:36.545Z,72.10
2018-01-30T21:46:03.032Z,72.40
2018-01-30T21:48:29.327Z,72.30
2018-01-30T21:50:55.575Z,72.20
2018-01-30T21:53:21.874Z,71.70
2018-01-30T21:55:48.136Z,70.60
2018-01-30T21:58:14.377Z,71.20
2018-01-30T22:00:40.623Z,71.00
2018-01-30T22:03:06.841Z,70.10
2018-01-30T22:05:33.060Z,70.90
2018-01-30T22:08:00.007Z,72.20
2018-01-30T22:10:26.967Z,72.80
2018-01-30T22:12:53.200Z,72.70
2018-01-30T22:15:19.459Z,72.30
2018-01-30T22:17:45.695Z,73.20
2018-01-30T22:20:11.933Z,73.00
2018-01-30T22:22:38.192Z,72.90
2018-01-30T22:25:04.439Z,71.80
2018-01-30T22:27:31.452Z,73.30
2018-01-30T22:29:57.663Z,73.30
2018-01-30T22:32:23.904Z,72.60
2018-01-30T22:34:50.847Z,72.90
2018-01-30T22:37:17.083Z,72.90
2018-01-30T22:39:43.343Z,72.80
2018-01-30T22:42:09.568Z,72.30
2018-01-30T22:44:36.059Z,72.50
2018-01-30T22:47:02.367Z,72.00
